La Quinta, California
Current Conditions -  °F | °C
As of 3:52 PM on Thursday 18 Dec 2014 (Local Time) from KTRM Reporting Station
Clear Clear  
Wind Chill: 67°   Ceiling: Unl
Heat Index: 67°   Visibility: 10mi
Dew Point: 36°   Wind: 3mph
Humidity: 32%   Direction: 180°S
Pressure: 30.1"   Gusts: NA
Location:  33.68°N, 116.29°W
Report Text: KTRM 182352Z AUTO 18003KT 10SM CLR 19/02 A3010 RMK AO2 SLP193 T01940022 10200 20156 55000 TSNO
Loading
Personal Weather Stations






























Interactive Weather Map New forecast layout! Learn more

10-Day Weather Forecast

Advertisements
Track Severe Weather on mobile